Terminal Aerodrome Forecast
Issued by NWS Grand Forks, ND

Home | Current Version | Previous Version | Text Only | Print | Product List | Glossary Off
Versions: 1 2 3 4 5 6 7 8 9 10 11 12 13 14 15 16 17 18 19 20

438
FTUS43 KFGF 081120
TAFGFK
TAF
KGFK 081120Z 0812/0912 31007KT P6SM BKN015
     FM081400 30007KT P6SM OVC030
     FM081600 28007KT P6SM OVC070
     FM082000 32015G23KT P6SM OVC040
     FM090600 34012KT P6SM BKN025=

USA.gov is the U.S. government's official web portal to all federal, state and local government web resources and services.